sensor_id;sensor_type;location;lat;lon;timestamp;P1;durP1;ratioP1;P2;durP2;ratioP2
14048;SDS011;7099;53.922;10.728;2023-11-18T00:00:05;9.43;;;6.30;;
14048;SDS011;7099;53.922;10.728;2023-11-18T00:04:17;7.00;;;5.40;;
14048;SDS011;7099;53.922;10.728;2023-11-18T00:08:23;10.63;;;6.13;;
14048;SDS011;7099;53.922;10.728;2023-11-18T00:12:28;8.70;;;6.30;;
14048;SDS011;7099;53.922;10.728;2023-11-18T00:16:34;10.63;;;6.10;;
14048;SDS011;7099;53.922;10.728;2023-11-18T00:20:41;8.27;;;6.13;;
14048;SDS011;7099;53.922;10.728;2023-11-18T00:24:48;12.77;;;6.57;;
14048;SDS011;7099;53.922;10.728;2023-11-18T00:28:53;20.23;;;6.87;;
14048;SDS011;7099;53.922;10.728;2023-11-18T00:32:59;8.27;;;6.47;;
14048;SDS011;7099;53.922;10.728;2023-11-18T00:37:05;8.93;;;6.43;;
14048;SDS011;7099;53.922;10.728;2023-11-18T00:41:10;9.73;;;5.93;;
14048;SDS011;7099;53.922;10.728;2023-11-18T00:45:17;10.30;;;6.67;;
14048;SDS011;7099;53.922;10.728;2023-11-18T00:49:23;10.50;;;7.10;;
14048;SDS011;7099;53.922;10.728;2023-11-18T00:53:30;10.30;;;7.20;;
14048;SDS011;7099;53.922;10.728;2023-11-18T00:57:39;10.67;;;7.10;;
14048;SDS011;7099;53.922;10.728;2023-11-18T01:01:44;9.30;;;6.73;;
14048;SDS011;7099;53.922;10.728;2023-11-18T01:05:50;12.63;;;7.13;;
14048;SDS011;7099;53.922;10.728;2023-11-18T01:09:56;12.50;;;7.43;;
14048;SDS011;7099;53.922;10.728;2023-11-18T01:14:01;13.60;;;7.50;;
14048;SDS011;7099;53.922;10.728;2023-11-18T01:18:08;9.67;;;6.87;;
14048;SDS011;7099;53.922;10.728;2023-11-18T01:22:13;10.60;;;6.67;;
14048;SDS011;7099;53.922;10.728;2023-11-18T01:26:19;11.80;;;6.80;;
14048;SDS011;7099;53.922;10.728;2023-11-18T01:30:26;10.87;;;7.10;;
14048;SDS011;7099;53.922;10.728;2023-11-18T01:34:32;11.23;;;6.57;;
14048;SDS011;7099;53.922;10.728;2023-11-18T01:38:39;8.80;;;6.63;;
14048;SDS011;7099;53.922;10.728;2023-11-18T01:42:44;7.90;;;5.67;;
14048;SDS011;7099;53.922;10.728;2023-11-18T01:46:51;7.93;;;5.80;;
14048;SDS011;7099;53.922;10.728;2023-11-18T01:50:58;7.80;;;6.43;;
14048;SDS011;7099;53.922;10.728;2023-11-18T01:55:04;9.93;;;6.70;;
14048;SDS011;7099;53.922;10.728;2023-11-18T01:59:11;10.63;;;6.93;;
14048;SDS011;7099;53.922;10.728;2023-11-18T02:03:22;8.63;;;6.30;;
14048;SDS011;7099;53.922;10.728;2023-11-18T02:07:29;10.60;;;7.50;;
14048;SDS011;7099;53.922;10.728;2023-11-18T02:11:37;7.70;;;5.90;;
14048;SDS011;7099;53.922;10.728;2023-11-18T02:15:48;8.93;;;6.40;;
14048;SDS011;7099;53.922;10.728;2023-11-18T02:19:55;9.10;;;5.50;;
14048;SDS011;7099;53.922;10.728;2023-11-18T02:24:02;9.00;;;6.10;;
14048;SDS011;7099;53.922;10.728;2023-11-18T02:28:09;7.23;;;5.60;;
14048;SDS011;7099;53.922;10.728;2023-11-18T02:36:39;8.90;;;6.30;;
14048;SDS011;7099;53.922;10.728;2023-11-18T02:40:51;10.10;;;6.50;;
14048;SDS011;7099;53.922;10.728;2023-11-18T02:45:01;13.80;;;6.60;;
14048;SDS011;7099;53.922;10.728;2023-11-18T02:49:08;12.50;;;7.07;;
14048;SDS011;7099;53.922;10.728;2023-11-18T02:53:14;8.33;;;6.03;;
14048;SDS011;7099;53.922;10.728;2023-11-18T02:57:20;7.70;;;6.33;;
14048;SDS011;7099;53.922;10.728;2023-11-18T03:01:26;9.10;;;5.70;;
14048;SDS011;7099;53.922;10.728;2023-11-18T03:05:32;9.70;;;6.97;;
14048;SDS011;7099;53.922;10.728;2023-11-18T03:09:38;8.07;;;5.93;;
14048;SDS011;7099;53.922;10.728;2023-11-18T03:13:44;8.13;;;6.20;;
14048;SDS011;7099;53.922;10.728;2023-11-18T03:17:53;8.73;;;6.00;;
14048;SDS011;7099;53.922;10.728;2023-11-18T03:21:59;11.00;;;6.60;;
14048;SDS011;7099;53.922;10.728;2023-11-18T03:26:10;8.40;;;6.27;;
14048;SDS011;7099;53.922;10.728;2023-11-18T03:30:16;9.70;;;6.60;;
14048;SDS011;7099;53.922;10.728;2023-11-18T03:34:22;9.00;;;6.53;;
14048;SDS011;7099;53.922;10.728;2023-11-18T03:38:27;14.33;;;6.93;;
14048;SDS011;7099;53.922;10.728;2023-11-18T03:42:33;10.90;;;6.73;;
14048;SDS011;7099;53.922;10.728;2023-11-18T03:46:40;12.00;;;6.80;;
14048;SDS011;7099;53.922;10.728;2023-11-18T03:50:47;10.40;;;7.90;;
14048;SDS011;7099;53.922;10.728;2023-11-18T03:54:53;10.40;;;7.13;;
14048;SDS011;7099;53.922;10.728;2023-11-18T03:58:59;13.70;;;7.80;;
14048;SDS011;7099;53.922;10.728;2023-11-18T04:03:05;12.23;;;7.43;;
14048;SDS011;7099;53.922;10.728;2023-11-18T04:07:12;12.33;;;7.70;;
14048;SDS011;7099;53.922;10.728;2023-11-18T04:11:18;14.60;;;8.67;;
14048;SDS011;7099;53.922;10.728;2023-11-18T04:15:23;12.70;;;7.53;;
14048;SDS011;7099;53.922;10.728;2023-11-18T04:19:29;12.93;;;8.17;;
14048;SDS011;7099;53.922;10.728;2023-11-18T04:23:37;14.70;;;7.87;;
14048;SDS011;7099;53.922;10.728;2023-11-18T04:27:44;11.00;;;7.30;;
14048;SDS011;7099;53.922;10.728;2023-11-18T04:31:51;16.50;;;9.70;;
14048;SDS011;7099;53.922;10.728;2023-11-18T04:35:58;14.10;;;8.17;;
14048;SDS011;7099;53.922;10.728;2023-11-18T04:40:06;15.27;;;9.77;;
14048;SDS011;7099;53.922;10.728;2023-11-18T04:44:14;17.17;;;9.37;;
14048;SDS011;7099;53.922;10.728;2023-11-18T04:48:21;18.77;;;10.10;;
14048;SDS011;7099;53.922;10.728;2023-11-18T04:52:27;19.40;;;10.20;;
14048;SDS011;7099;53.922;10.728;2023-11-18T04:56:33;17.03;;;9.67;;
14048;SDS011;7099;53.922;10.728;2023-11-18T05:00:42;17.43;;;10.37;;
14048;SDS011;7099;53.922;10.728;2023-11-18T05:04:48;20.40;;;10.83;;
14048;SDS011;7099;53.922;10.728;2023-11-18T05:08:54;21.37;;;11.27;;
14048;SDS011;7099;53.922;10.728;2023-11-18T05:12:59;17.57;;;9.70;;
14048;SDS011;7099;53.922;10.728;2023-11-18T05:17:05;18.13;;;10.20;;
14048;SDS011;7099;53.922;10.728;2023-11-18T05:21:11;18.93;;;10.37;;
14048;SDS011;7099;53.922;10.728;2023-11-18T05:25:17;16.97;;;9.40;;
14048;SDS011;7099;53.922;10.728;2023-11-18T05:29:22;18.80;;;10.53;;
14048;SDS011;7099;53.922;10.728;2023-11-18T05:33:28;16.80;;;9.87;;
14048;SDS011;7099;53.922;10.728;2023-11-18T05:37:35;18.23;;;8.50;;
14048;SDS011;7099;53.922;10.728;2023-11-18T05:41:43;14.80;;;9.07;;
14048;SDS011;7099;53.922;10.728;2023-11-18T05:45:50;17.20;;;9.40;;
14048;SDS011;7099;53.922;10.728;2023-11-18T05:50:15;13.77;;;8.70;;
14048;SDS011;7099;53.922;10.728;2023-11-18T05:54:21;12.50;;;8.50;;
14048;SDS011;7099;53.922;10.728;2023-11-18T05:58:26;14.73;;;8.30;;
14048;SDS011;7099;53.922;10.728;2023-11-18T06:02:33;14.13;;;8.70;;
14048;SDS011;7099;53.922;10.728;2023-11-18T06:06:41;13.60;;;7.93;;
14048;SDS011;7099;53.922;10.728;2023-11-18T06:10:47;16.30;;;8.30;;
14048;SDS011;7099;53.922;10.728;2023-11-18T06:14:53;12.37;;;8.10;;
14048;SDS011;7099;53.922;10.728;2023-11-18T06:18:59;15.23;;;7.97;;
14048;SDS011;7099;53.922;10.728;2023-11-18T06:23:05;15.37;;;8.27;;
14048;SDS011;7099;53.922;10.728;2023-11-18T06:27:11;12.60;;;8.50;;
14048;SDS011;7099;53.922;10.728;2023-11-18T06:31:17;13.37;;;8.60;;
14048;SDS011;7099;53.922;10.728;2023-11-18T06:35:23;11.03;;;7.90;;
14048;SDS011;7099;53.922;10.728;2023-11-18T06:39:29;12.90;;;7.83;;
14048;SDS011;7099;53.922;10.728;2023-11-18T06:43:35;13.13;;;8.90;;
14048;SDS011;7099;53.922;10.728;2023-11-18T06:48:03;12.70;;;8.10;;
14048;SDS011;7099;53.922;10.728;2023-11-18T06:52:10;13.20;;;7.60;;
14048;SDS011;7099;53.922;10.728;2023-11-18T06:56:17;12.50;;;8.00;;
14048;SDS011;7099;53.922;10.728;2023-11-18T07:00:23;12.20;;;8.17;;
14048;SDS011;7099;53.922;10.728;2023-11-18T07:04:33;11.00;;;7.93;;
14048;SDS011;7099;53.922;10.728;2023-11-18T07:08:38;21.70;;;9.20;;
14048;SDS011;7099;53.922;10.728;2023-11-18T07:12:44;12.20;;;8.10;;
14048;SDS011;7099;53.922;10.728;2023-11-18T07:16:49;14.07;;;8.80;;
14048;SDS011;7099;53.922;10.728;2023-11-18T07:20:55;18.90;;;7.90;;
14048;SDS011;7099;53.922;10.728;2023-11-18T07:25:00;19.53;;;8.57;;
14048;SDS011;7099;53.922;10.728;2023-11-18T07:29:07;14.60;;;8.30;;
14048;SDS011;7099;53.922;10.728;2023-11-18T07:33:14;13.30;;;8.40;;
14048;SDS011;7099;53.922;10.728;2023-11-18T07:37:20;20.07;;;8.40;;
14048;SDS011;7099;53.922;10.728;2023-11-18T07:41:27;78.83;;;9.43;;
14048;SDS011;7099;53.922;10.728;2023-11-18T07:45:37;22.07;;;8.30;;
14048;SDS011;7099;53.922;10.728;2023-11-18T07:49:44;43.07;;;9.13;;
14048;SDS011;7099;53.922;10.728;2023-11-18T07:53:50;44.07;;;9.00;;
14048;SDS011;7099;53.922;10.728;2023-11-18T07:57:57;27.33;;;7.77;;
14048;SDS011;7099;53.922;10.728;2023-11-18T08:02:03;23.37;;;9.10;;
14048;SDS011;7099;53.922;10.728;2023-11-18T08:06:13;19.10;;;8.33;;
14048;SDS011;7099;53.922;10.728;2023-11-18T08:10:19;13.23;;;8.37;;
14048;SDS011;7099;53.922;10.728;2023-11-18T08:14:26;15.70;;;9.20;;
14048;SDS011;7099;53.922;10.728;2023-11-18T08:18:34;17.97;;;8.77;;
14048;SDS011;7099;53.922;10.728;2023-11-18T08:22:41;15.67;;;8.53;;
14048;SDS011;7099;53.922;10.728;2023-11-18T08:26:49;15.80;;;9.67;;
14048;SDS011;7099;53.922;10.728;2023-11-18T08:30:55;13.73;;;8.47;;
14048;SDS011;7099;53.922;10.728;2023-11-18T08:35:00;12.87;;;8.80;;
14048;SDS011;7099;53.922;10.728;2023-11-18T08:39:06;16.60;;;9.90;;
14048;SDS011;7099;53.922;10.728;2023-11-18T08:43:16;17.80;;;10.30;;
14048;SDS011;7099;53.922;10.728;2023-11-18T08:47:22;15.70;;;9.97;;
14048;SDS011;7099;53.922;10.728;2023-11-18T08:51:29;16.20;;;10.47;;
14048;SDS011;7099;53.922;10.728;2023-11-18T08:55:38;14.33;;;9.40;;
14048;SDS011;7099;53.922;10.728;2023-11-18T08:59:47;17.63;;;9.20;;
14048;SDS011;7099;53.922;10.728;2023-11-18T09:03:53;15.20;;;10.10;;
14048;SDS011;7099;53.922;10.728;2023-11-18T09:07:59;21.47;;;10.80;;
14048;SDS011;7099;53.922;10.728;2023-11-18T09:12:07;16.77;;;9.80;;
14048;SDS011;7099;53.922;10.728;2023-11-18T09:16:13;18.40;;;10.00;;
14048;SDS011;7099;53.922;10.728;2023-11-18T09:20:19;18.40;;;10.63;;
14048;SDS011;7099;53.922;10.728;2023-11-18T09:24:27;22.20;;;9.93;;
14048;SDS011;7099;53.922;10.728;2023-11-18T09:28:37;16.20;;;9.10;;
14048;SDS011;7099;53.922;10.728;2023-11-18T09:32:43;14.70;;;8.60;;
14048;SDS011;7099;53.922;10.728;2023-11-18T09:36:53;11.60;;;7.47;;
14048;SDS011;7099;53.922;10.728;2023-11-18T09:41:00;12.97;;;8.40;;
14048;SDS011;7099;53.922;10.728;2023-11-18T09:45:07;13.40;;;8.27;;
14048;SDS011;7099;53.922;10.728;2023-11-18T09:53:39;14.13;;;8.23;;
14048;SDS011;7099;53.922;10.728;2023-11-18T09:57:48;12.57;;;7.90;;
14048;SDS011;7099;53.922;10.728;2023-11-18T10:02:09;17.80;;;8.77;;
14048;SDS011;7099;53.922;10.728;2023-11-18T10:06:15;14.10;;;8.90;;
14048;SDS011;7099;53.922;10.728;2023-11-18T10:10:21;13.50;;;8.67;;
14048;SDS011;7099;53.922;10.728;2023-11-18T10:14:27;11.77;;;8.57;;
14048;SDS011;7099;53.922;10.728;2023-11-18T10:18:34;12.53;;;8.20;;
14048;SDS011;7099;53.922;10.728;2023-11-18T10:22:41;12.97;;;7.60;;
14048;SDS011;7099;53.922;10.728;2023-11-18T10:26:56;13.90;;;8.27;;
14048;SDS011;7099;53.922;10.728;2023-11-18T10:31:02;11.07;;;7.40;;
14048;SDS011;7099;53.922;10.728;2023-11-18T10:35:11;12.73;;;7.97;;
14048;SDS011;7099;53.922;10.728;2023-11-18T10:39:17;14.40;;;7.80;;
14048;SDS011;7099;53.922;10.728;2023-11-18T10:43:29;11.17;;;7.80;;
14048;SDS011;7099;53.922;10.728;2023-11-18T10:47:34;9.80;;;7.27;;
14048;SDS011;7099;53.922;10.728;2023-11-18T10:51:41;11.93;;;8.17;;
14048;SDS011;7099;53.922;10.728;2023-11-18T10:55:46;11.80;;;7.80;;
14048;SDS011;7099;53.922;10.728;2023-11-18T11:00:02;11.37;;;7.33;;
14048;SDS011;7099;53.922;10.728;2023-11-18T11:04:18;10.87;;;7.77;;
14048;SDS011;7099;53.922;10.728;2023-11-18T11:08:27;10.13;;;7.20;;
14048;SDS011;7099;53.922;10.728;2023-11-18T11:12:50;8.90;;;6.73;;
14048;SDS011;7099;53.922;10.728;2023-11-18T11:16:59;11.80;;;7.47;;
14048;SDS011;7099;53.922;10.728;2023-11-18T11:21:18;10.70;;;6.93;;
14048;SDS011;7099;53.922;10.728;2023-11-18T11:25:36;7.80;;;5.90;;
14048;SDS011;7099;53.922;10.728;2023-11-18T11:34:30;12.40;;;6.63;;
14048;SDS011;7099;53.922;10.728;2023-11-18T11:38:36;7.20;;;5.30;;
14048;SDS011;7099;53.922;10.728;2023-11-18T11:42:42;6.47;;;4.60;;
14048;SDS011;7099;53.922;10.728;2023-11-18T11:46:49;7.87;;;5.60;;
14048;SDS011;7099;53.922;10.728;2023-11-18T11:51:01;7.10;;;4.77;;
14048;SDS011;7099;53.922;10.728;2023-11-18T12:03:57;3.10;;;2.80;;
14048;SDS011;7099;53.922;10.728;2023-11-18T12:08:09;3.90;;;3.23;;
14048;SDS011;7099;53.922;10.728;2023-11-18T12:12:18;4.50;;;2.80;;
14048;SDS011;7099;53.922;10.728;2023-11-18T12:16:55;4.93;;;3.17;;
14048;SDS011;7099;53.922;10.728;2023-11-18T12:21:06;3.97;;;3.10;;
14048;SDS011;7099;53.922;10.728;2023-11-18T12:29:32;3.47;;;3.17;;
14048;SDS011;7099;53.922;10.728;2023-11-18T12:34:02;3.40;;;2.47;;
14048;SDS011;7099;53.922;10.728;2023-11-18T12:47:10;11.63;;;2.67;;
14048;SDS011;7099;53.922;10.728;2023-11-18T12:51:20;4.73;;;2.50;;
14048;SDS011;7099;53.922;10.728;2023-11-18T12:55:26;4.00;;;2.63;;
14048;SDS011;7099;53.922;10.728;2023-11-18T12:59:36;4.23;;;2.43;;
14048;SDS011;7099;53.922;10.728;2023-11-18T13:03:42;7.40;;;2.60;;
14048;SDS011;7099;53.922;10.728;2023-11-18T13:07:49;2.40;;;2.20;;
14048;SDS011;7099;53.922;10.728;2023-11-18T13:11:55;3.20;;;2.30;;
14048;SDS011;7099;53.922;10.728;2023-11-18T13:16:06;12.80;;;2.67;;
14048;SDS011;7099;53.922;10.728;2023-11-18T13:20:15;7.13;;;2.30;;
14048;SDS011;7099;53.922;10.728;2023-11-18T13:24:23;12.30;;;2.23;;
14048;SDS011;7099;53.922;10.728;2023-11-18T13:28:28;8.97;;;2.40;;
14048;SDS011;7099;53.922;10.728;2023-11-18T13:32:34;9.03;;;2.70;;
14048;SDS011;7099;53.922;10.728;2023-11-18T13:36:39;2.00;;;1.80;;
14048;SDS011;7099;53.922;10.728;2023-11-18T13:40:45;2.20;;;1.90;;
14048;SDS011;7099;53.922;10.728;2023-11-18T13:44:53;2.17;;;1.97;;
14048;SDS011;7099;53.922;10.728;2023-11-18T13:49:05;2.77;;;2.10;;
14048;SDS011;7099;53.922;10.728;2023-11-18T13:53:11;3.40;;;1.80;;
14048;SDS011;7099;53.922;10.728;2023-11-18T13:57:17;8.87;;;2.80;;
14048;SDS011;7099;53.922;10.728;2023-11-18T14:01:23;5.20;;;2.57;;
14048;SDS011;7099;53.922;10.728;2023-11-18T14:05:33;18.03;;;3.03;;
14048;SDS011;7099;53.922;10.728;2023-11-18T14:09:39;10.80;;;3.13;;
14048;SDS011;7099;53.922;10.728;2023-11-18T14:13:45;7.17;;;2.30;;
14048;SDS011;7099;53.922;10.728;2023-11-18T14:17:51;4.87;;;2.87;;
14048;SDS011;7099;53.922;10.728;2023-11-18T14:21:57;4.20;;;3.20;;
14048;SDS011;7099;53.922;10.728;2023-11-18T14:26:03;2.93;;;2.60;;
14048;SDS011;7099;53.922;10.728;2023-11-18T14:30:09;3.53;;;2.90;;
14048;SDS011;7099;53.922;10.728;2023-11-18T14:34:17;8.27;;;3.90;;
14048;SDS011;7099;53.922;10.728;2023-11-18T14:38:23;4.30;;;3.30;;
14048;SDS011;7099;53.922;10.728;2023-11-18T14:42:29;35.40;;;6.00;;
14048;SDS011;7099;53.922;10.728;2023-11-18T14:46:35;13.20;;;4.17;;
14048;SDS011;7099;53.922;10.728;2023-11-18T14:50:45;10.40;;;4.63;;
14048;SDS011;7099;53.922;10.728;2023-11-18T14:54:51;12.20;;;4.40;;
14048;SDS011;7099;53.922;10.728;2023-11-18T14:58:56;6.03;;;3.97;;
14048;SDS011;7099;53.922;10.728;2023-11-18T15:03:02;7.97;;;5.40;;
14048;SDS011;7099;53.922;10.728;2023-11-18T15:07:08;4.00;;;3.53;;
14048;SDS011;7099;53.922;10.728;2023-11-18T15:11:20;3.80;;;3.40;;
14048;SDS011;7099;53.922;10.728;2023-11-18T15:19:37;4.40;;;2.90;;
14048;SDS011;7099;53.922;10.728;2023-11-18T15:23:43;4.23;;;3.40;;
14048;SDS011;7099;53.922;10.728;2023-11-18T15:27:48;4.90;;;3.53;;
14048;SDS011;7099;53.922;10.728;2023-11-18T15:31:54;4.70;;;3.90;;
14048;SDS011;7099;53.922;10.728;2023-11-18T15:36:00;4.07;;;3.47;;
14048;SDS011;7099;53.922;10.728;2023-11-18T15:40:07;5.00;;;3.60;;
14048;SDS011;7099;53.922;10.728;2023-11-18T15:44:18;4.07;;;3.20;;
14048;SDS011;7099;53.922;10.728;2023-11-18T15:48:25;5.80;;;3.50;;
14048;SDS011;7099;53.922;10.728;2023-11-18T15:52:32;5.47;;;4.03;;
14048;SDS011;7099;53.922;10.728;2023-11-18T15:56:41;4.80;;;3.67;;
14048;SDS011;7099;53.922;10.728;2023-11-18T16:00:49;4.20;;;3.10;;
14048;SDS011;7099;53.922;10.728;2023-11-18T16:04:58;4.53;;;3.33;;
14048;SDS011;7099;53.922;10.728;2023-11-18T16:09:04;4.77;;;3.80;;
14048;SDS011;7099;53.922;10.728;2023-11-18T16:13:11;4.60;;;3.13;;
14048;SDS011;7099;53.922;10.728;2023-11-18T16:17:18;5.30;;;3.50;;
14048;SDS011;7099;53.922;10.728;2023-11-18T16:21:25;4.50;;;3.53;;
14048;SDS011;7099;53.922;10.728;2023-11-18T16:25:31;5.97;;;4.40;;
14048;SDS011;7099;53.922;10.728;2023-11-18T16:29:39;4.33;;;3.93;;
14048;SDS011;7099;53.922;10.728;2023-11-18T16:33:45;6.70;;;4.10;;
14048;SDS011;7099;53.922;10.728;2023-11-18T16:37:51;7.93;;;5.00;;
14048;SDS011;7099;53.922;10.728;2023-11-18T16:41:57;6.30;;;4.60;;
14048;SDS011;7099;53.922;10.728;2023-11-18T16:46:02;6.40;;;4.63;;
14048;SDS011;7099;53.922;10.728;2023-11-18T16:50:10;7.20;;;5.47;;
14048;SDS011;7099;53.922;10.728;2023-11-18T16:54:16;7.20;;;5.20;;
14048;SDS011;7099;53.922;10.728;2023-11-18T16:58:37;8.33;;;6.20;;
14048;SDS011;7099;53.922;10.728;2023-11-18T17:02:44;10.80;;;6.77;;
14048;SDS011;7099;53.922;10.728;2023-11-18T17:06:52;7.60;;;5.40;;
14048;SDS011;7099;53.922;10.728;2023-11-18T17:10:58;7.73;;;5.70;;
14048;SDS011;7099;53.922;10.728;2023-11-18T17:15:03;7.73;;;6.17;;
14048;SDS011;7099;53.922;10.728;2023-11-18T17:19:11;10.33;;;5.73;;
14048;SDS011;7099;53.922;10.728;2023-11-18T17:23:17;8.33;;;5.83;;
14048;SDS011;7099;53.922;10.728;2023-11-18T17:27:23;8.27;;;6.10;;
14048;SDS011;7099;53.922;10.728;2023-11-18T17:31:29;9.10;;;5.17;;
14048;SDS011;7099;53.922;10.728;2023-11-18T17:35:35;15.13;;;9.87;;
14048;SDS011;7099;53.922;10.728;2023-11-18T17:39:41;5.83;;;4.70;;
14048;SDS011;7099;53.922;10.728;2023-11-18T17:43:48;7.30;;;4.47;;
14048;SDS011;7099;53.922;10.728;2023-11-18T17:47:54;6.07;;;4.20;;
14048;SDS011;7099;53.922;10.728;2023-11-18T17:51:59;6.20;;;4.27;;
14048;SDS011;7099;53.922;10.728;2023-11-18T17:56:06;4.33;;;3.93;;
14048;SDS011;7099;53.922;10.728;2023-11-18T18:00:12;4.57;;;4.10;;
14048;SDS011;7099;53.922;10.728;2023-11-18T18:04:24;6.70;;;3.80;;
14048;SDS011;7099;53.922;10.728;2023-11-18T18:08:30;5.13;;;3.93;;
14048;SDS011;7099;53.922;10.728;2023-11-18T18:12:39;6.10;;;3.90;;
14048;SDS011;7099;53.922;10.728;2023-11-18T18:16:50;9.27;;;3.80;;
14048;SDS011;7099;53.922;10.728;2023-11-18T18:20:55;5.87;;;3.80;;
14048;SDS011;7099;53.922;10.728;2023-11-18T18:25:02;5.90;;;3.90;;
14048;SDS011;7099;53.922;10.728;2023-11-18T18:29:09;4.63;;;3.50;;
14048;SDS011;7099;53.922;10.728;2023-11-18T18:33:15;8.73;;;3.67;;
14048;SDS011;7099;53.922;10.728;2023-11-18T18:37:21;5.43;;;4.20;;
14048;SDS011;7099;53.922;10.728;2023-11-18T18:41:30;7.60;;;4.30;;
14048;SDS011;7099;53.922;10.728;2023-11-18T18:45:36;4.87;;;3.90;;
14048;SDS011;7099;53.922;10.728;2023-11-18T18:49:42;6.90;;;4.30;;
14048;SDS011;7099;53.922;10.728;2023-11-18T18:53:47;10.63;;;5.07;;
14048;SDS011;7099;53.922;10.728;2023-11-18T18:57:53;5.50;;;4.10;;
14048;SDS011;7099;53.922;10.728;2023-11-18T19:01:59;5.40;;;4.17;;
14048;SDS011;7099;53.922;10.728;2023-11-18T19:06:05;6.10;;;4.53;;
14048;SDS011;7099;53.922;10.728;2023-11-18T19:10:11;6.10;;;4.53;;
14048;SDS011;7099;53.922;10.728;2023-11-18T19:14:16;7.07;;;4.70;;
14048;SDS011;7099;53.922;10.728;2023-11-18T19:18:22;7.53;;;5.20;;
14048;SDS011;7099;53.922;10.728;2023-11-18T19:22:28;14.43;;;5.83;;
14048;SDS011;7099;53.922;10.728;2023-11-18T19:26:33;8.83;;;5.33;;
14048;SDS011;7099;53.922;10.728;2023-11-18T19:30:41;9.07;;;6.63;;
14048;SDS011;7099;53.922;10.728;2023-11-18T19:34:47;9.17;;;6.40;;
14048;SDS011;7099;53.922;10.728;2023-11-18T19:38:53;10.27;;;7.47;;
14048;SDS011;7099;53.922;10.728;2023-11-18T19:42:59;10.80;;;6.27;;
14048;SDS011;7099;53.922;10.728;2023-11-18T19:47:05;11.73;;;7.27;;
14048;SDS011;7099;53.922;10.728;2023-11-18T19:51:12;10.60;;;7.60;;
14048;SDS011;7099;53.922;10.728;2023-11-18T19:55:18;10.60;;;7.30;;
14048;SDS011;7099;53.922;10.728;2023-11-18T19:59:25;10.53;;;7.97;;
14048;SDS011;7099;53.922;10.728;2023-11-18T20:03:31;14.37;;;8.37;;
14048;SDS011;7099;53.922;10.728;2023-11-18T20:07:37;11.20;;;7.87;;
14048;SDS011;7099;53.922;10.728;2023-11-18T20:11:50;18.20;;;8.77;;
14048;SDS011;7099;53.922;10.728;2023-11-18T20:15:57;14.50;;;8.90;;
14048;SDS011;7099;53.922;10.728;2023-11-18T20:20:03;13.57;;;8.70;;
14048;SDS011;7099;53.922;10.728;2023-11-18T20:24:14;12.63;;;8.57;;
14048;SDS011;7099;53.922;10.728;2023-11-18T20:28:21;12.30;;;9.03;;
14048;SDS011;7099;53.922;10.728;2023-11-18T20:32:26;18.77;;;9.07;;
14048;SDS011;7099;53.922;10.728;2023-11-18T20:36:33;12.70;;;8.93;;
14048;SDS011;7099;53.922;10.728;2023-11-18T20:40:39;12.90;;;8.00;;
14048;SDS011;7099;53.922;10.728;2023-11-18T20:44:44;13.60;;;8.67;;
14048;SDS011;7099;53.922;10.728;2023-11-18T20:48:51;12.20;;;8.80;;
14048;SDS011;7099;53.922;10.728;2023-11-18T20:52:56;16.37;;;10.20;;
14048;SDS011;7099;53.922;10.728;2023-11-18T20:57:03;16.13;;;10.27;;
14048;SDS011;7099;53.922;10.728;2023-11-18T21:01:09;16.40;;;10.10;;
14048;SDS011;7099;53.922;10.728;2023-11-18T21:05:17;15.23;;;8.93;;
14048;SDS011;7099;53.922;10.728;2023-11-18T21:09:25;16.23;;;9.03;;
14048;SDS011;7099;53.922;10.728;2023-11-18T21:13:30;13.87;;;9.07;;
14048;SDS011;7099;53.922;10.728;2023-11-18T21:17:39;15.27;;;9.60;;
14048;SDS011;7099;53.922;10.728;2023-11-18T21:21:47;14.17;;;9.00;;
14048;SDS011;7099;53.922;10.728;2023-11-18T21:25:53;16.60;;;9.00;;
14048;SDS011;7099;53.922;10.728;2023-11-18T21:29:58;12.33;;;9.33;;
14048;SDS011;7099;53.922;10.728;2023-11-18T21:34:07;15.37;;;9.20;;
14048;SDS011;7099;53.922;10.728;2023-11-18T21:38:12;12.17;;;8.53;;
14048;SDS011;7099;53.922;10.728;2023-11-18T21:42:18;14.17;;;9.03;;
14048;SDS011;7099;53.922;10.728;2023-11-18T21:46:26;15.33;;;8.63;;
14048;SDS011;7099;53.922;10.728;2023-11-18T21:50:32;17.73;;;9.03;;
14048;SDS011;7099;53.922;10.728;2023-11-18T21:54:38;23.10;;;10.33;;
14048;SDS011;7099;53.922;10.728;2023-11-18T21:58:44;22.90;;;10.30;;
14048;SDS011;7099;53.922;10.728;2023-11-18T22:02:50;12.77;;;9.07;;
14048;SDS011;7099;53.922;10.728;2023-11-18T22:06:55;17.40;;;9.63;;
14048;SDS011;7099;53.922;10.728;2023-11-18T22:11:01;17.67;;;9.57;;
14048;SDS011;7099;53.922;10.728;2023-11-18T22:15:07;13.17;;;8.70;;
14048;SDS011;7099;53.922;10.728;2023-11-18T22:19:13;14.93;;;8.10;;
14048;SDS011;7099;53.922;10.728;2023-11-18T22:23:21;14.00;;;8.90;;
14048;SDS011;7099;53.922;10.728;2023-11-18T22:27:27;16.53;;;8.20;;
14048;SDS011;7099;53.922;10.728;2023-11-18T22:31:34;15.17;;;8.67;;
14048;SDS011;7099;53.922;10.728;2023-11-18T22:35:41;12.33;;;7.90;;
14048;SDS011;7099;53.922;10.728;2023-11-18T22:39:47;15.50;;;8.30;;
14048;SDS011;7099;53.922;10.728;2023-11-18T22:43:53;15.87;;;8.43;;
14048;SDS011;7099;53.922;10.728;2023-11-18T22:47:58;14.67;;;8.23;;
14048;SDS011;7099;53.922;10.728;2023-11-18T22:52:04;18.30;;;8.73;;
14048;SDS011;7099;53.922;10.728;2023-11-18T22:56:10;12.77;;;8.40;;
14048;SDS011;7099;53.922;10.728;2023-11-18T23:00:19;14.87;;;8.70;;
14048;SDS011;7099;53.922;10.728;2023-11-18T23:04:48;13.00;;;8.70;;
14048;SDS011;7099;53.922;10.728;2023-11-18T23:08:54;10.70;;;6.83;;
14048;SDS011;7099;53.922;10.728;2023-11-18T23:12:59;11.20;;;6.70;;
14048;SDS011;7099;53.922;10.728;2023-11-18T23:17:05;9.57;;;7.10;;
14048;SDS011;7099;53.922;10.728;2023-11-18T23:21:12;11.10;;;6.80;;
14048;SDS011;7099;53.922;10.728;2023-11-18T23:25:19;11.90;;;7.03;;
14048;SDS011;7099;53.922;10.728;2023-11-18T23:29:27;12.40;;;6.33;;
14048;SDS011;7099;53.922;10.728;2023-11-18T23:33:33;8.53;;;5.93;;
14048;SDS011;7099;53.922;10.728;2023-11-18T23:37:40;7.67;;;5.73;;
14048;SDS011;7099;53.922;10.728;2023-11-18T23:41:50;10.73;;;5.87;;
14048;SDS011;7099;53.922;10.728;2023-11-18T23:45:55;7.90;;;5.57;;
14048;SDS011;7099;53.922;10.728;2023-11-18T23:50:01;11.60;;;7.30;;
14048;SDS011;7099;53.922;10.728;2023-11-18T23:54:08;8.03;;;6.23;;
14048;SDS011;7099;53.922;10.728;2023-11-18T23:58:14;9.00;;;6.17;;
